createdAt,value
2022-11-19T00:01:20.840Z,5.80
2022-11-19T00:03:52.405Z,5.80
2022-11-19T00:06:22.673Z,5.80
2022-11-19T00:08:50.065Z,5.70
2022-11-19T00:11:41.963Z,5.80
2022-11-19T00:14:10.224Z,5.90
2022-11-19T00:16:37.030Z,5.90
2022-11-19T00:19:04.408Z,5.60
2022-11-19T00:21:31.090Z,5.50
2022-11-19T00:23:57.953Z,5.50
2022-11-19T00:26:24.871Z,5.40
2022-11-19T00:28:51.545Z,5.50
2022-11-19T00:31:18.701Z,5.50
2022-11-19T00:33:46.121Z,5.60
2022-11-19T00:36:15.366Z,5.50
2022-11-19T00:38:42.516Z,5.50
2022-11-19T00:41:09.773Z,5.50
2022-11-19T00:43:48.837Z,5.50
2022-11-19T00:46:27.415Z,5.60
2022-11-19T00:48:55.912Z,5.60
2022-11-19T00:51:24.329Z,5.50
2022-11-19T00:53:51.406Z,5.40
2022-11-19T00:56:20.050Z,5.40
2022-11-19T00:58:47.631Z,5.20
2022-11-19T01:01:15.943Z,5.20
2022-11-19T01:03:45.648Z,5.00
2022-11-19T01:06:18.852Z,5.10
2022-11-19T01:08:46.901Z,5.00
2022-11-19T01:11:16.401Z,5.20
2022-11-19T01:13:43.244Z,5.00
2022-11-19T01:16:18.816Z,5.10
2022-11-19T01:18:47.716Z,5.10
2022-11-19T01:21:15.036Z,5.20
2022-11-19T01:23:42.854Z,5.10
2022-11-19T01:26:11.323Z,5.00
2022-11-19T01:28:38.573Z,5.30
2022-11-19T01:31:14.785Z,4.90
2022-11-19T01:33:42.164Z,4.90
2022-11-19T01:36:17.327Z,4.90
2022-11-19T01:38:44.379Z,5.00
2022-11-19T01:41:11.089Z,4.90
2022-11-19T01:43:45.543Z,4.60
2022-11-19T01:46:14.464Z,4.70
2022-11-19T01:48:49.163Z,4.80
2022-11-19T01:51:25.850Z,4.60
2022-11-19T01:53:55.645Z,4.40
2022-11-19T01:56:23.698Z,4.50
2022-11-19T01:58:54.572Z,4.60
2022-11-19T02:01:22.827Z,4.70
2022-11-19T02:03:51.661Z,4.60
2022-11-19T02:06:19.125Z,4.60
2022-11-19T02:08:48.044Z,4.50
2022-11-19T02:11:47.125Z,4.60
2022-11-19T02:14:53.436Z,4.70
2022-11-19T02:17:58.986Z,4.60
2022-11-19T02:20:37.063Z,4.60
2022-11-19T02:23:45.926Z,4.40
2022-11-19T02:26:31.058Z,4.30
2022-11-19T02:29:28.965Z,4.60
2022-11-19T02:32:09.728Z,4.30
2022-11-19T02:34:45.713Z,4.40
2022-11-19T02:37:23.908Z,4.20
2022-11-19T02:39:54.534Z,4.30
2022-11-19T02:42:30.823Z,4.00
2022-11-19T02:45:05.535Z,4.00
2022-11-19T02:47:45.822Z,4.10
2022-11-19T02:50:22.029Z,4.10
2022-11-19T02:52:49.503Z,4.00
2022-11-19T02:55:19.367Z,4.20
2022-11-19T02:57:58.163Z,4.30
2022-11-19T03:00:43.854Z,4.00
2022-11-19T03:03:35.357Z,4.20
2022-11-19T03:06:26.703Z,4.30
2022-11-19T03:08:54.053Z,4.20
2022-11-19T03:11:27.941Z,3.60
2022-11-19T03:14:40.537Z,3.70
2022-11-19T03:17:10.462Z,3.90
2022-11-19T03:20:03.312Z,3.90
2022-11-19T03:22:54.013Z,3.90
2022-11-19T03:25:27.461Z,4.00
2022-11-19T03:28:00.687Z,4.00
2022-11-19T03:30:29.109Z,4.00
2022-11-19T03:33:06.513Z,4.10
2022-11-19T03:35:40.270Z,4.10
2022-11-19T03:38:11.249Z,4.10
2022-11-19T03:40:39.792Z,4.10
2022-11-19T03:43:09.585Z,4.00
2022-11-19T03:45:41.992Z,4.10
2022-11-19T03:48:09.914Z,3.80
2022-11-19T03:50:48.522Z,4.00
2022-11-19T03:53:15.720Z,4.10
2022-11-19T03:55:58.539Z,4.10
2022-11-19T03:58:26.546Z,3.90
2022-11-19T04:00:53.773Z,3.80
2022-11-19T04:03:20.670Z,3.90
2022-11-19T04:05:47.963Z,4.20
2022-11-19T04:08:14.705Z,3.80
2022-11-19T04:10:41.425Z,3.90
2022-11-19T04:13:08.093Z,4.00
2022-11-19T04:15:34.796Z,3.50
2022-11-19T04:18:01.553Z,3.90
2022-11-19T04:20:28.284Z,3.90
2022-11-19T04:22:54.966Z,4.00
2022-11-19T04:25:21.709Z,3.70
2022-11-19T04:27:48.377Z,3.80
2022-11-19T04:30:15.844Z,3.50
2022-11-19T04:32:43.132Z,3.70
2022-11-19T04:35:10.835Z,3.80
2022-11-19T04:37:37.606Z,3.70
2022-11-19T04:40:04.840Z,3.60
2022-11-19T04:42:31.489Z,3.60
2022-11-19T04:44:58.792Z,3.50
2022-11-19T04:47:25.467Z,3.30
2022-11-19T04:49:52.122Z,3.20
2022-11-19T04:52:18.849Z,3.30
2022-11-19T04:54:45.572Z,3.30
2022-11-19T04:57:12.260Z,3.40
2022-11-19T04:59:39.008Z,3.30
2022-11-19T05:02:05.766Z,3.40
2022-11-19T05:04:32.426Z,3.40
2022-11-19T05:06:59.153Z,3.30
2022-11-19T05:09:25.841Z,3.50
2022-11-19T05:11:52.529Z,3.20
2022-11-19T05:14:19.177Z,3.40
2022-11-19T05:16:45.950Z,3.50
2022-11-19T05:19:12.722Z,3.60
2022-11-19T05:21:39.391Z,3.50
2022-11-19T05:24:06.331Z,3.30
2022-11-19T05:26:33.003Z,3.40
2022-11-19T05:28:59.716Z,3.40
2022-11-19T05:31:26.381Z,3.50
2022-11-19T05:33:53.049Z,3.40
2022-11-19T05:36:19.756Z,3.50
2022-11-19T05:38:46.421Z,3.50
2022-11-19T05:41:13.166Z,3.40
2022-11-19T05:43:39.984Z,3.50
2022-11-19T05:46:06.654Z,3.30
2022-11-19T05:48:33.320Z,3.40
2022-11-19T05:51:00.053Z,3.50
2022-11-19T05:53:27.352Z,3.40
2022-11-19T05:55:54.100Z,3.40
2022-11-19T05:58:20.949Z,3.40
2022-11-19T06:00:48.127Z,3.40
2022-11-19T06:03:14.903Z,3.40
2022-11-19T06:05:41.975Z,3.40
2022-11-19T06:08:08.722Z,3.50
2022-11-19T06:10:35.416Z,3.50
2022-11-19T06:13:02.085Z,3.50
2022-11-19T06:15:28.817Z,3.50
2022-11-19T06:17:56.495Z,3.40
2022-11-19T06:20:23.186Z,3.40
2022-11-19T06:22:49.849Z,3.60
2022-11-19T06:25:16.578Z,3.60
2022-11-19T06:27:43.285Z,3.50
2022-11-19T06:30:11.031Z,3.50
2022-11-19T06:32:37.878Z,3.40
2022-11-19T06:35:05.176Z,3.40
2022-11-19T06:37:31.850Z,3.40
2022-11-19T06:39:58.513Z,3.50
2022-11-19T06:42:37.690Z,3.50
2022-11-19T06:45:05.246Z,3.50
2022-11-19T06:47:32.841Z,3.50
2022-11-19T06:49:59.505Z,3.40
2022-11-19T06:52:26.454Z,3.50
2022-11-19T06:54:53.261Z,3.50
2022-11-19T06:57:20.188Z,3.20
2022-11-19T06:59:47.373Z,3.30
2022-11-19T07:02:17.833Z,3.40
2022-11-19T07:04:47.031Z,3.40
2022-11-19T07:07:13.804Z,3.40
2022-11-19T07:09:40.508Z,3.40
2022-11-19T07:12:08.204Z,3.30
2022-11-19T07:14:35.712Z,3.40
2022-11-19T07:17:02.996Z,3.30
2022-11-19T07:19:30.154Z,3.10
2022-11-19T07:21:56.915Z,3.30
2022-11-19T07:24:23.688Z,3.20
2022-11-19T07:26:50.389Z,3.20
2022-11-19T07:29:17.694Z,3.30
2022-11-19T07:31:46.879Z,3.10
2022-11-19T07:34:13.597Z,3.20
2022-11-19T07:36:40.304Z,3.20
2022-11-19T07:39:06.997Z,3.20
2022-11-19T07:41:52.180Z,3.00
2022-11-19T07:44:19.137Z,3.10
2022-11-19T07:46:45.982Z,3.00
2022-11-19T07:49:12.849Z,3.00
2022-11-19T07:51:39.521Z,3.00
2022-11-19T07:54:06.332Z,2.90
2022-11-19T07:56:32.991Z,2.90
2022-11-19T07:59:00.730Z,3.10
2022-11-19T08:01:27.621Z,3.30
2022-11-19T08:03:56.727Z,3.30
2022-11-19T08:06:26.094Z,3.00
2022-11-19T08:08:53.962Z,3.00
2022-11-19T08:11:20.643Z,3.00
2022-11-19T08:13:47.375Z,2.90
2022-11-19T08:16:36.317Z,3.00
2022-11-19T08:19:07.111Z,3.00
2022-11-19T08:21:34.496Z,3.20
2022-11-19T08:24:01.763Z,3.20
2022-11-19T08:26:28.710Z,3.20
2022-11-19T08:28:55.375Z,3.30
2022-11-19T08:31:22.086Z,4.40
2022-11-19T08:33:48.885Z,6.80
2022-11-19T08:36:15.569Z,7.60
2022-11-19T08:38:42.275Z,6.50
2022-11-19T08:41:27.563Z,5.40
2022-11-19T08:43:54.224Z,5.10
2022-11-19T08:46:20.903Z,4.70
2022-11-19T08:48:47.639Z,4.80
2022-11-19T08:51:14.959Z,4.60
2022-11-19T08:53:41.965Z,4.70
2022-11-19T08:56:10.181Z,4.60
2022-11-19T08:58:39.506Z,4.10
2022-11-19T09:01:14.464Z,3.80
2022-11-19T09:03:41.898Z,3.80
2022-11-19T09:06:09.412Z,3.70
2022-11-19T09:08:36.204Z,3.70
2022-11-19T09:11:11.735Z,3.40
2022-11-19T09:13:39.000Z,3.30
2022-11-19T09:16:06.770Z,3.50
2022-11-19T09:18:34.508Z,3.50
2022-11-19T09:21:01.180Z,3.30
2022-11-19T09:23:27.969Z,3.40
2022-11-19T09:25:56.847Z,3.40
2022-11-19T09:28:23.552Z,3.40
2022-11-19T09:31:00.395Z,3.30
2022-11-19T09:33:28.675Z,3.50
2022-11-19T09:35:55.432Z,3.50
2022-11-19T09:38:22.257Z,3.20
2022-11-19T09:40:54.785Z,3.00
2022-11-19T09:43:47.618Z,3.20
2022-11-19T09:46:30.683Z,3.20
2022-11-19T09:49:03.574Z,3.00
2022-11-19T09:51:33.755Z,3.30
2022-11-19T09:54:08.097Z,3.10
2022-11-19T09:56:41.338Z,3.10
2022-11-19T09:59:20.389Z,2.90
2022-11-19T10:01:47.140Z,3.20
2022-11-19T10:04:15.347Z,3.30
2022-11-19T10:06:47.909Z,3.40
2022-11-19T10:09:32.943Z,3.40
2022-11-19T10:12:37.001Z,3.00
2022-11-19T10:15:42.927Z,3.20
2022-11-19T10:18:38.187Z,3.10
2022-11-19T10:21:14.314Z,3.00
2022-11-19T10:23:48.513Z,3.10
2022-11-19T10:26:17.709Z,2.90
2022-11-19T10:28:57.843Z,3.10
2022-11-19T10:31:34.705Z,3.20
2022-11-19T10:34:19.959Z,3.20
2022-11-19T10:36:49.457Z,2.90
2022-11-19T10:39:28.706Z,2.90
2022-11-19T10:42:30.114Z,3.00
2022-11-19T10:45:09.462Z,2.90
2022-11-19T10:47:47.764Z,3.10
2022-11-19T10:50:19.183Z,3.10
2022-11-19T10:52:54.589Z,3.20
2022-11-19T10:55:29.951Z,3.10
2022-11-19T10:58:24.856Z,3.10
2022-11-19T11:00:55.219Z,3.20
2022-11-19T11:03:44.727Z,3.30
2022-11-19T11:06:12.174Z,3.10
2022-11-19T11:08:51.993Z,3.20
2022-11-19T11:11:49.876Z,2.90
2022-11-19T11:14:41.005Z,3.10
2022-11-19T11:17:26.853Z,3.20
2022-11-19T11:20:20.317Z,3.20
2022-11-19T11:22:50.848Z,3.30
2022-11-19T11:25:28.277Z,3.40
2022-11-19T11:28:13.704Z,3.20
2022-11-19T11:31:02.457Z,3.20
2022-11-19T11:33:39.165Z,3.30
2022-11-19T11:36:09.750Z,3.20
2022-11-19T11:38:48.187Z,3.20
2022-11-19T11:44:14.912Z,3.20
2022-11-19T11:46:49.064Z,3.00
2022-11-19T11:49:26.341Z,3.00
2022-11-19T11:52:04.970Z,3.00
2022-11-19T11:54:31.770Z,2.80
2022-11-19T11:57:16.702Z,2.80
2022-11-19T11:59:43.512Z,3.00
2022-11-19T12:02:27.211Z,3.10
2022-11-19T12:04:56.072Z,3.20
2022-11-19T12:08:16.943Z,3.10
2022-11-19T12:11:01.629Z,3.00
2022-11-19T12:13:31.090Z,3.00
2022-11-19T12:16:27.105Z,3.10
2022-11-19T12:19:19.441Z,2.90
2022-11-19T12:22:07.987Z,2.70
2022-11-19T12:24:59.478Z,2.60
2022-11-19T12:27:52.323Z,2.70
2022-11-19T12:30:21.638Z,2.90
2022-11-19T12:33:12.551Z,3.00
2022-11-19T12:35:49.601Z,3.10
2022-11-19T12:38:36.114Z,3.20
2022-11-19T12:41:41.370Z,3.10
2022-11-19T12:44:32.042Z,3.20
2022-11-19T12:47:04.436Z,3.10
2022-11-19T12:49:48.027Z,3.20
2022-11-19T12:52:33.320Z,3.10
2022-11-19T12:55:05.286Z,3.30
2022-11-19T12:57:44.481Z,3.30
2022-11-19T13:00:21.506Z,3.30
2022-11-19T13:03:09.272Z,3.40
2022-11-19T13:05:35.927Z,3.30
2022-11-19T13:08:28.807Z,3.30
2022-11-19T13:11:10.961Z,3.10
2022-11-19T13:13:42.582Z,3.20
2022-11-19T13:16:16.273Z,3.30
2022-11-19T13:18:47.782Z,3.20
2022-11-19T13:21:26.420Z,3.20
2022-11-19T13:23:54.103Z,3.10
2022-11-19T13:26:25.653Z,3.20
2022-11-19T13:29:36.416Z,3.00
2022-11-19T13:32:27.302Z,3.30
2022-11-19T13:35:16.906Z,3.40
2022-11-19T13:38:02.654Z,3.40
2022-11-19T13:40:47.556Z,3.30
2022-11-19T13:43:37.483Z,3.30
2022-11-19T13:46:10.332Z,3.30
2022-11-19T13:48:43.974Z,3.20
2022-11-19T13:51:24.916Z,3.10
2022-11-19T13:53:52.559Z,3.30
2022-11-19T13:56:21.632Z,3.50
2022-11-19T13:58:52.644Z,3.40
2022-11-19T14:01:47.741Z,3.40
2022-11-19T14:04:43.135Z,3.40
2022-11-19T14:07:42.537Z,3.40
2022-11-19T14:10:35.683Z,3.30
2022-11-19T14:13:14.531Z,3.30
2022-11-19T14:16:27.073Z,3.30
2022-11-19T14:19:17.679Z,3.30
2022-11-19T14:22:08.116Z,3.30
2022-11-19T14:24:53.714Z,3.30
2022-11-19T14:27:22.402Z,3.20
2022-11-19T14:29:49.091Z,3.10
2022-11-19T14:32:15.811Z,3.20
2022-11-19T14:35:02.884Z,3.20
2022-11-19T14:37:47.946Z,3.20
2022-11-19T14:40:21.203Z,3.20
2022-11-19T14:43:18.757Z,3.20
2022-11-19T14:46:04.450Z,3.30
2022-11-19T14:48:32.382Z,3.30
2022-11-19T14:51:23.928Z,3.40
2022-11-19T14:53:59.682Z,3.40
2022-11-19T14:56:26.909Z,3.40
2022-11-19T14:59:01.586Z,3.40
2022-11-19T15:01:28.304Z,3.20
2022-11-19T15:04:06.947Z,3.30
2022-11-19T15:06:37.645Z,3.20
2022-11-19T15:09:04.391Z,3.20
2022-11-19T15:11:56.930Z,3.20
2022-11-19T15:14:29.530Z,3.10
2022-11-19T15:17:04.368Z,3.10
2022-11-19T15:19:45.022Z,3.30
2022-11-19T15:22:35.629Z,3.10
2022-11-19T15:25:22.574Z,3.10
2022-11-19T15:28:16.639Z,3.20
2022-11-19T15:30:56.786Z,3.20
2022-11-19T15:33:41.306Z,3.10
2022-11-19T15:36:29.915Z,3.20
2022-11-19T15:39:13.937Z,3.40
2022-11-19T15:42:00.339Z,3.30
2022-11-19T15:45:00.588Z,3.30
2022-11-19T15:47:45.632Z,3.40
2022-11-19T15:50:23.764Z,3.40
2022-11-19T15:53:14.030Z,3.40
2022-11-19T15:55:52.360Z,3.30
2022-11-19T15:58:24.650Z,3.30
2022-11-19T16:00:52.834Z,3.20
2022-11-19T16:03:20.316Z,3.30
2022-11-19T16:06:01.999Z,3.30
2022-11-19T16:08:28.802Z,3.40
2022-11-19T16:11:20.149Z,3.30
2022-11-19T16:14:13.398Z,3.30
2022-11-19T16:16:58.955Z,3.40
2022-11-19T16:19:25.722Z,3.20
2022-11-19T16:22:00.665Z,3.10
2022-11-19T16:24:47.623Z,3.20
2022-11-19T16:27:22.077Z,3.20
2022-11-19T16:29:49.009Z,3.30
2022-11-19T16:32:18.549Z,3.30
2022-11-19T16:34:45.622Z,3.20
2022-11-19T16:37:18.806Z,3.20
2022-11-19T16:39:51.377Z,3.00
2022-11-19T16:42:26.030Z,3.20
2022-11-19T16:44:56.516Z,2.90
2022-11-19T16:47:36.284Z,3.10
2022-11-19T16:50:33.430Z,3.10
2022-11-19T16:53:01.189Z,3.20
2022-11-19T16:55:31.673Z,3.10
2022-11-19T16:58:10.482Z,3.20
2022-11-19T17:00:37.833Z,3.10
2022-11-19T17:03:34.496Z,3.10
2022-11-19T17:06:02.581Z,3.10
2022-11-19T17:08:31.832Z,3.20
2022-11-19T17:11:40.344Z,3.10
2022-11-19T17:14:31.104Z,3.10
2022-11-19T17:16:57.848Z,3.00
2022-11-19T17:19:28.346Z,3.10
2022-11-19T17:22:07.125Z,3.00
2022-11-19T17:24:42.832Z,3.10
2022-11-19T17:27:25.748Z,3.10
2022-11-19T17:30:02.974Z,3.10
2022-11-19T17:32:44.544Z,3.10
2022-11-19T17:35:33.531Z,3.10
2022-11-19T17:38:08.844Z,3.10
2022-11-19T17:40:36.107Z,3.20
2022-11-19T17:43:21.388Z,3.20
2022-11-19T17:45:48.113Z,3.10
2022-11-19T17:48:22.009Z,3.20
2022-11-19T17:50:48.855Z,3.10
2022-11-19T17:53:15.562Z,3.20
2022-11-19T17:55:44.186Z,3.20
2022-11-19T17:58:10.867Z,3.10
2022-11-19T18:00:37.986Z,3.30
2022-11-19T18:03:04.832Z,3.30
2022-11-19T18:05:34.715Z,3.20
2022-11-19T18:08:01.450Z,3.20
2022-11-19T18:10:28.206Z,3.30
2022-11-19T18:12:54.989Z,3.30
2022-11-19T18:15:21.703Z,3.20
2022-11-19T18:17:48.631Z,3.30
2022-11-19T18:20:15.433Z,3.30
2022-11-19T18:22:42.223Z,3.20
2022-11-19T18:25:14.752Z,3.10
2022-11-19T18:27:41.515Z,3.20
2022-11-19T18:30:08.681Z,3.20
2022-11-19T18:32:35.808Z,3.30
2022-11-19T18:35:03.049Z,3.20
2022-11-19T18:37:29.753Z,3.20
2022-11-19T18:39:56.531Z,3.10
2022-11-19T18:42:23.849Z,3.10
2022-11-19T18:44:50.692Z,3.10
2022-11-19T18:47:18.782Z,2.90
2022-11-19T18:49:45.478Z,3.10
2022-11-19T18:52:15.007Z,3.20
2022-11-19T18:54:41.799Z,3.10
2022-11-19T18:57:09.854Z,3.10
2022-11-19T18:59:36.637Z,3.20
2022-11-19T19:02:03.472Z,3.20
2022-11-19T19:04:30.530Z,3.30
2022-11-19T19:06:59.161Z,3.20
2022-11-19T19:09:26.445Z,3.10
2022-11-19T19:12:13.835Z,3.10
2022-11-19T19:14:42.551Z,3.20
2022-11-19T19:17:09.836Z,3.20
2022-11-19T19:19:36.583Z,3.20
2022-11-19T19:22:04.702Z,3.20
2022-11-19T19:24:32.428Z,3.20
2022-11-19T19:27:00.250Z,3.10
2022-11-19T19:29:27.227Z,3.10
2022-11-19T19:31:54.082Z,3.10
2022-11-19T19:34:20.834Z,3.20
2022-11-19T19:36:52.719Z,3.10
2022-11-19T19:39:20.015Z,3.20
2022-11-19T19:41:46.904Z,3.00
2022-11-19T19:44:13.726Z,3.10
2022-11-19T19:46:40.573Z,3.00
2022-11-19T19:49:07.373Z,3.10
2022-11-19T19:51:34.049Z,3.10
2022-11-19T19:54:01.103Z,3.20
2022-11-19T19:56:29.988Z,3.20
2022-11-19T19:58:57.920Z,3.20
2022-11-19T20:01:27.016Z,3.20
2022-11-19T20:03:54.990Z,3.10
2022-11-19T20:06:23.460Z,3.20
2022-11-19T20:08:50.430Z,3.10
2022-11-19T20:11:24.710Z,3.00
2022-11-19T20:13:52.973Z,3.10
2022-11-19T20:16:22.737Z,3.00
2022-11-19T20:18:51.044Z,3.00
2022-11-19T20:21:26.510Z,3.20
2022-11-19T20:23:53.603Z,3.20
2022-11-19T20:26:25.967Z,3.10
2022-11-19T20:29:06.261Z,3.20
2022-11-19T20:31:34.316Z,3.20
2022-11-19T20:34:03.730Z,3.10
2022-11-19T20:36:34.311Z,3.20
2022-11-19T20:39:01.541Z,3.20
2022-11-19T20:41:47.341Z,3.20
2022-11-19T20:44:23.086Z,3.20
2022-11-19T20:46:52.983Z,3.20
2022-11-19T20:49:21.808Z,3.20
2022-11-19T20:51:48.721Z,3.10
2022-11-19T20:54:16.014Z,3.20
2022-11-19T20:56:42.913Z,3.20
2022-11-19T20:59:10.971Z,3.20
2022-11-19T21:01:38.332Z,3.20
2022-11-19T21:04:05.522Z,3.20
2022-11-19T21:06:32.842Z,3.20
2022-11-19T21:08:59.553Z,3.20
2022-11-19T21:11:26.533Z,3.20
2022-11-19T21:13:53.242Z,3.10
2022-11-19T21:16:22.525Z,3.10
2022-11-19T21:18:49.973Z,3.10
2022-11-19T21:21:18.955Z,3.20
2022-11-19T21:23:46.141Z,3.00
2022-11-19T21:26:16.470Z,3.10
2022-11-19T21:28:47.158Z,3.10
2022-11-19T21:31:19.301Z,3.20
2022-11-19T21:33:46.084Z,3.10
2022-11-19T21:36:13.390Z,3.20
2022-11-19T21:38:40.813Z,3.20
2022-11-19T21:41:07.787Z,3.20
2022-11-19T21:43:35.291Z,3.20
2022-11-19T21:46:06.176Z,3.20
2022-11-19T21:48:32.939Z,3.10
2022-11-19T21:50:59.604Z,3.10
2022-11-19T21:53:26.372Z,3.20
2022-11-19T21:55:53.054Z,3.30
2022-11-19T21:58:19.731Z,3.20
2022-11-19T22:00:47.068Z,3.20
2022-11-19T22:03:14.423Z,3.20
2022-11-19T22:05:41.539Z,3.20
2022-11-19T22:08:08.458Z,3.20
2022-11-19T22:10:35.136Z,3.10
2022-11-19T22:13:01.825Z,3.30
2022-11-19T22:15:28.589Z,3.30
2022-11-19T22:17:55.259Z,3.30
2022-11-19T22:20:23.764Z,3.40
2022-11-19T22:22:50.486Z,3.30
2022-11-19T22:25:17.250Z,3.30
2022-11-19T22:27:43.898Z,3.20
2022-11-19T22:30:11.245Z,3.30
2022-11-19T22:32:37.945Z,3.20
2022-11-19T22:35:05.286Z,3.20
2022-11-19T22:37:32.701Z,3.20
2022-11-19T22:39:59.366Z,3.20
2022-11-19T22:42:26.066Z,3.20
2022-11-19T22:44:53.386Z,3.20
2022-11-19T22:47:20.086Z,3.20
2022-11-19T22:49:46.780Z,3.20
2022-11-19T22:52:15.621Z,3.20
2022-11-19T22:54:42.288Z,3.10
2022-11-19T22:57:09.712Z,3.20
2022-11-19T22:59:36.387Z,3.20
2022-11-19T23:02:03.124Z,3.10
2022-11-19T23:04:29.835Z,3.10
2022-11-19T23:06:56.842Z,3.10
2022-11-19T23:09:23.720Z,3.10
2022-11-19T23:12:09.323Z,3.20
2022-11-19T23:14:35.987Z,3.20
2022-11-19T23:17:02.680Z,3.10
2022-11-19T23:19:29.425Z,3.10
2022-11-19T23:21:56.064Z,3.10
2022-11-19T23:24:22.909Z,3.10
2022-11-19T23:26:49.578Z,3.10
2022-11-19T23:29:16.662Z,3.20
2022-11-19T23:31:43.293Z,3.20
2022-11-19T23:34:10.310Z,3.20
2022-11-19T23:36:41.008Z,3.20
2022-11-19T23:39:13.208Z,3.20
2022-11-19T23:41:40.005Z,3.20
2022-11-19T23:44:06.701Z,3.10
2022-11-19T23:46:35.214Z,3.10
2022-11-19T23:49:03.205Z,3.20
2022-11-19T23:51:35.554Z,3.20
2022-11-19T23:54:03.286Z,3.10
2022-11-19T23:56:31.908Z,3.10
2022-11-19T23:59:00.921Z,3.10
